CheckWX is a tool to help pilots better visualize weather data.  It is not intended as a substitute for an official pre-flight weather briefing.

14:42:52 UTC

FNMA METAR
Malanje
Malanje, Angola
Current

2 hours ago

FNMA 221300Z VRB02KT 9999 FEW015 BKN023 28/24 Q1013
Observed
Apr-22 @ 13:00 UTC
Wind
  • Variable at 2 KTS
Visibility
10,000+ meters
Flight Rules
MVFR
Cloud Levels
  • Few at 1,500' AGL
  • Broken at 2,300' AGL
Temperature
28°C / 82°F
Dewpoint
24°C / 75°F
Heat Index
32°C / 89°F
Humidity
79%
Altimeter
29.91" Hg
Pressure
1012.92 hPa
Previous

4 hours ago

FNMA 221100Z 00000KT 9999 FEW012 SCT020 26/22 Q1016
Observed
Apr-22 @ 11:00 UTC
Visibility
10,000+ meters
Flight Rules
VFR
Cloud Levels
  • Few at 1,200' AGL
  • Scattered at 2,000' AGL
Temperature
26°C / 79°F
Dewpoint
22°C / 72°F
Humidity
79%
Altimeter
30" Hg
Pressure
1015.92 hPa
Previous

5 hours ago

FNMA 221000Z VRB03KT 9999 FEW010 SCT020 25/21 Q1017
Observed
Apr-22 @ 10:00 UTC
Wind
  • Variable at 3 KTS
Visibility
10,000+ meters
Flight Rules
VFR
Cloud Levels
  • Few at 1,000' AGL
  • Scattered at 2,000' AGL
Temperature
25°C / 77°F
Dewpoint
21°C / 70°F
Humidity
79%
Altimeter
30.03" Hg
Pressure
1016.92 hPa